Time;durP1;ratioP1;P1;durP2;ratioP2;P2;SDS_P1;SDS_P2;PMS_P1;PMS_P2;Temp;Humidity;BMP_temperature;BMP_pressure;BME280_temperature;BME280_humidity;BME280_pressure;Samples;Min_cycle;Max_cycle;Signal;HPM_P1;HPM_P2
2023/04/30 13:31:21;;;;;;;2.60;1.80;;;;;;;22.71;27.49;98846.10;102968;1296;648534;-67
2023/04/30 13:33:48;;;;;;;2.80;1.80;;;;;;;21.60;28.10;98847.06;103611;1279;558345;-67
2023/04/30 13:36:16;;;;;;;2.40;1.90;;;;;;;21.40;29.55;98847.76;104528;1277;94283;-68
2023/04/30 13:38:43;;;;;;;4.40;2.30;;;;;;;21.64;29.71;98850.20;104537;1277;107986;-68
2023/04/30 13:41:10;;;;;;;2.30;2.00;;;;;;;22.27;29.42;98846.15;104414;1268;95937;-68
2023/04/30 13:43:37;;;;;;;3.30;2.40;;;;;;;22.58;28.91;98845.73;104336;1277;94392;-68
2023/04/30 13:46:08;;;;;;;3.40;2.40;;;;;;;22.67;28.41;98846.58;104212;1276;94391;-68
2023/04/30 13:48:35;;;;;;;5.90;3.50;;;;;;;22.67;28.25;98846.64;104244;1272;95056;-68
2023/04/30 13:51:03;;;;;;;15.50;7.00;;;;;;;22.38;28.82;98847.59;104323;1270;94385;-68
2023/04/30 13:53:30;;;;;;;2.50;2.00;;;;;;;22.22;28.64;98845.58;104424;1269;94293;-68
2023/04/30 13:55:59;;;;;;;3.70;2.10;;;;;;;21.57;28.52;98842.41;104355;1273;95221;-67
2023/04/30 13:58:33;;;;;;;3.30;2.50;;;;;;;20.55;28.96;98837.19;104690;1263;95550;-68
2023/04/30 14:01:01;;;;;;;2.20;1.70;;;;;;;19.88;30.19;98837.87;104772;1264;96114;-67
2023/04/30 14:03:28;;;;;;;4.30;2.40;;;;;;;19.22;30.83;98839.65;104667;1268;108749;-68
2023/04/30 14:05:57;;;;;;;4.30;2.70;;;;;;;18.50;32.36;98843.75;104758;1259;95331;-68
2023/04/30 14:08:24;;;;;;;4.60;2.30;;;;;;;18.30;33.14;98843.64;104800;1261;108699;-70
2023/04/30 14:10:51;;;;;;;2.10;1.90;;;;;;;17.99;33.15;98844.64;104842;1263;95310;-70
2023/04/30 14:13:18;;;;;;;3.00;2.30;;;;;;;17.62;34.24;98852.07;104682;1257;95396;-73
2023/04/30 14:15:47;;;;;;;5.80;3.00;;;;;;;17.34;35.21;98846.05;104984;1270;95249;-70
2023/04/30 14:18:14;;;;;;;3.40;2.00;;;;;;;17.28;35.65;98849.23;104720;1266;98218;-70
2023/04/30 14:20:41;;;;;;;4.00;2.00;;;;;;;17.34;35.81;98849.70;104951;1269;95235;-68
2023/04/30 14:23:08;;;;;;;2.70;2.00;;;;;;;17.11;35.35;98845.97;104960;1259;95291;-69
2023/04/30 14:25:43;;;;;;;4.50;2.70;;;;;;;16.82;36.04;98844.77;104760;1269;95204;-70
2023/04/30 14:28:22;;;;;;;4.10;2.20;;;;;;;16.79;35.80;98851.00;104930;1272;109138;-69
2023/04/30 14:30:50;;;;;;;3.10;2.00;;;;;;;16.73;35.68;98850.93;104941;1269;96116;-69
2023/04/30 14:33:17;;;;;;;2.70;2.00;;;;;;;16.57;36.08;98849.67;104709;1269;95259;-69
2023/04/30 14:35:45;;;;;;;4.50;2.30;;;;;;;16.49;36.51;98852.11;104937;1264;95567;-70
2023/04/30 14:38:13;;;;;;;3.30;2.20;;;;;;;16.26;36.70;98849.85;104974;1260;95647;-69
2023/04/30 14:40:42;;;;;;;3.60;2.60;;;;;;;16.14;37.61;98848.94;104857;1269;109569;-70
2023/04/30 14:43:09;;;;;;;4.10;2.80;;;;;;;16.19;38.12;98849.33;104916;1260;99102;-69
2023/04/30 14:45:38;;;;;;;2.80;2.40;;;;;;;16.27;38.39;98844.83;104724;1269;108269;-68
2023/04/30 14:48:05;;;;;;;3.10;2.20;;;;;;;16.26;38.19;98846.70;104799;1264;95793;-69
2023/04/30 14:50:33;;;;;;;4.10;2.10;;;;;;;16.19;38.01;98845.30;104935;1262;95208;-70
2023/04/30 14:53:00;;;;;;;4.10;2.00;;;;;;;16.06;37.96;98847.95;104871;1269;96822;-70
2023/04/30 14:55:27;;;;;;;3.90;2.00;;;;;;;16.02;38.26;98845.62;104881;1269;95314;-70
2023/04/30 14:57:54;;;;;;;2.80;2.20;;;;;;;16.05;39.00;98855.27;104587;1267;95245;-68
2023/04/30 15:00:22;;;;;;;3.40;2.00;;;;;;;16.09;38.62;98855.64;104381;1263;95329;-70
2023/04/30 15:02:49;;;;;;;5.50;2.10;;;;;;;16.06;38.82;98853.90;104789;1262;95918;-69
2023/04/30 15:05:16;;;;;;;4.20;1.80;;;;;;;16.00;38.56;98847.55;104900;1263;96639;-70
2023/04/30 15:07:44;;;;;;;4.40;1.90;;;;;;;15.98;38.33;98850.06;104853;1271;95271;-71
2023/04/30 15:10:11;;;;;;;2.50;1.40;;;;;;;15.78;37.95;98849.48;104934;1264;95216;-70
2023/04/30 15:12:40;;;;;;;4.50;2.50;;;;;;;15.65;38.84;98848.29;104803;1262;95260;-70
2023/04/30 15:15:08;;;;;;;4.90;2.30;;;;;;;15.60;38.79;98849.14;104425;1274;96059;-70
2023/04/30 15:17:35;;;;;;;3.30;2.00;;;;;;;15.52;39.09;98851.54;104822;1267;109754;-70
2023/04/30 15:20:04;;;;;;;6.90;2.00;;;;;;;15.50;39.60;98848.50;104976;1263;99199;-70
2023/04/30 15:22:32;;;;;;;2.50;1.60;;;;;;;15.42;39.30;98846.48;104942;1262;108572;-70
2023/04/30 15:24:59;;;;;;;3.00;2.30;;;;;;;15.28;39.92;98841.66;104541;1274;95221;-70
2023/04/30 15:27:26;;;;;;;5.90;3.00;;;;;;;15.31;40.54;98847.08;104815;1260;95307;-71
2023/04/30 15:29:54;;;;;;;5.30;2.40;;;;;;;15.38;40.00;98853.63;104655;1271;96226;-71
2023/04/30 15:32:22;;;;;;;2.10;1.60;;;;;;;15.35;38.78;98852.66;104782;1271;99300;-76
2023/04/30 15:34:49;;;;;;;2.00;1.60;;;;;;;15.20;38.46;98843.78;104672;1272;108172;-73
2023/04/30 15:37:17;;;;;;;3.30;2.00;;;;;;;15.08;38.77;98847.92;104835;1271;95233;-69
2023/04/30 15:39:43;;;;;;;6.60;2.00;;;;;;;15.01;38.81;98846.40;104824;1273;95290;-70
2023/04/30 15:42:13;;;;;;;3.20;1.90;;;;;;;14.98;39.57;98848.35;104719;1273;108563;-70
2023/04/30 15:44:40;;;;;;;1.90;1.50;;;;;;;14.96;40.04;98845.92;104943;1271;96159;-70
2023/04/30 15:47:08;;;;;;;2.50;2.00;;;;;;;14.93;40.00;98849.59;104839;1271;95256;-70
2023/04/30 15:49:35;;;;;;;3.10;1.70;;;;;;;14.89;40.40;98848.68;104934;1262;95292;-70
2023/04/30 15:52:02;;;;;;;6.10;2.30;;;;;;;14.88;40.62;98848.02;104934;1261;96148;-70
2023/04/30 15:54:30;;;;;;;2.90;2.00;;;;;;;14.82;40.65;98848.59;104892;1263;95824;-68
2023/04/30 15:56:58;;;;;;;3.20;2.10;;;;;;;14.78;41.28;98849.89;104741;1262;95249;-69
2023/04/30 15:59:26;;;;;;;3.60;2.20;;;;;;;14.75;40.69;98852.38;104666;1271;108532;-69
2023/04/30 16:01:53;;;;;;;3.50;2.00;;;;;;;14.70;41.13;98852.44;104741;1271;95242;-70
2023/04/30 16:04:20;;;;;;;2.40;1.50;;;;;;;14.70;41.50;98847.77;104877;1271;95871;-70
2023/04/30 16:06:48;;;;;;;3.20;2.00;;;;;;;14.65;40.88;98849.18;104861;1263;95698;-70
2023/04/30 16:09:18;;;;;;;2.90;1.90;;;;;;;14.59;40.93;98853.67;104861;1271;99020;-70
2023/04/30 16:11:49;;;;;;;4.50;2.10;;;;;;;14.55;41.08;98854.20;104914;1262;108592;-68
2023/04/30 16:14:16;;;;;;;2.80;1.70;;;;;;;14.55;40.81;98850.55;104700;1263;95241;-70
2023/04/30 16:16:43;;;;;;;3.20;1.70;;;;;;;14.45;40.36;98847.41;104689;1279;95271;-70
2023/04/30 16:19:11;;;;;;;3.10;1.70;;;;;;;14.38;40.25;98842.66;104890;1271;95301;-70
2023/04/30 16:21:40;;;;;;;3.60;2.00;;;;;;;14.28;39.92;98847.55;104768;1271;95281;-67
2023/04/30 16:24:09;;;;;;;3.30;1.60;;;;;;;14.30;40.71;98845.66;104653;1263;108444;-66
2023/04/30 16:26:36;;;;;;;4.00;2.30;;;;;;;14.31;40.55;98844.36;104558;1261;95521;-69
2023/04/30 16:29:03;;;;;;;4.80;2.30;;;;;;;14.30;40.52;98845.60;104774;1257;95205;-69
2023/04/30 16:31:31;;;;;;;7.10;2.40;;;;;;;14.25;40.59;98846.89;104742;1267;95236;-71
2023/04/30 16:33:58;;;;;;;4.50;2.00;;;;;;;14.20;40.73;98848.27;106127;1258;99061;-71
2023/04/30 16:36:26;;;;;;;3.30;1.80;;;;;;;14.14;40.46;98847.04;104633;1279;95326;-70
2023/04/30 16:38:53;;;;;;;2.90;1.70;;;;;;;14.08;40.81;98844.92;104814;1263;95976;-70
2023/04/30 16:41:20;;;;;;;4.60;2.10;;;;;;;14.09;40.89;98846.02;104963;1262;96113;-70
2023/04/30 16:43:47;;;;;;;2.80;1.70;;;;;;;14.08;41.02;98849.30;105058;1270;95236;-70
2023/04/30 16:46:14;;;;;;;4.40;1.90;;;;;;;14.06;40.82;98847.59;105045;1268;95281;-70
2023/04/30 16:48:43;;;;;;;3.80;2.10;;;;;;;13.99;40.69;98848.27;105046;1267;95749;-70
2023/04/30 16:51:10;;;;;;;4.20;2.00;;;;;;;13.92;40.49;98851.90;105016;1267;95840;-70
2023/04/30 16:53:37;;;;;;;7.60;4.40;;;;;;;13.84;40.34;98853.70;104943;1254;95474;-72
2023/04/30 16:56:05;;;;;;;16.60;9.10;;;;;;;13.74;40.04;98853.15;105013;1267;95835;-72
2023/04/30 16:58:32;;;;;;;4.50;3.00;;;;;;;13.64;40.13;98854.87;104948;1258;95226;-72
2023/04/30 17:00:59;;;;;;;3.40;2.20;;;;;;;13.59;40.67;98860.10;105091;1267;95314;-71
2023/04/30 17:03:26;;;;;;;4.40;1.80;;;;;;;13.55;40.74;98863.88;105186;1268;95235;-71
2023/04/30 17:05:54;;;;;;;5.90;3.10;;;;;;;13.51;41.04;98862.46;104874;1257;95233;-72
2023/04/30 17:08:21;;;;;;;3.70;2.10;;;;;;;13.49;41.22;98866.27;104859;1267;95225;-71
2023/04/30 17:10:49;;;;;;;5.30;2.20;;;;;;;13.47;41.47;98872.29;105069;1260;95293;-72
2023/04/30 17:13:17;;;;;;;3.80;2.00;;;;;;;13.42;41.47;98874.95;105063;1258;95294;-70
2023/04/30 17:15:45;;;;;;;3.60;2.30;;;;;;;13.35;41.94;98879.92;105052;1258;95239;-71
2023/04/30 17:18:13;;;;;;;7.10;4.30;;;;;;;13.31;42.29;98876.93;105076;1257;95811;-68
2023/04/30 17:20:41;;;;;;;4.50;2.80;;;;;;;13.28;42.29;98875.83;104901;1261;109655;-69
2023/04/30 17:23:07;;;;;;;6.30;3.40;;;;;;;13.24;42.53;98882.34;104946;1269;95282;-70
2023/04/30 17:25:37;;;;;;;7.10;3.70;;;;;;;13.17;42.75;98884.48;104980;1268;95295;-68
2023/04/30 17:28:06;;;;;;;6.70;3.70;;;;;;;13.09;42.79;98887.12;105027;1259;95207;-69
2023/04/30 17:30:34;;;;;;;3.90;2.60;;;;;;;13.01;42.90;98888.85;105232;1257;95225;-69
2023/04/30 17:33:03;;;;;;;5.90;3.40;;;;;;;12.92;42.59;98892.92;105203;1254;109502;-67
2023/04/30 17:35:30;;;;;;;10.50;4.10;;;;;;;12.87;42.89;98900.45;105154;1258;99357;-68
2023/04/30 17:37:58;;;;;;;9.60;3.80;;;;;;;12.79;43.05;98898.92;105151;1260;108531;-70
2023/04/30 17:40:26;;;;;;;4.80;2.80;;;;;;;12.72;43.18;98895.63;105156;1254;96635;-69
2023/04/30 17:42:53;;;;;;;4.70;3.40;;;;;;;12.65;43.35;98899.54;104979;1267;96551;-70
2023/04/30 17:45:20;;;;;;;6.70;3.80;;;;;;;12.59;43.79;98905.05;105041;1254;96632;-68
2023/04/30 17:47:47;;;;;;;6.30;4.00;;;;;;;12.51;44.13;98907.86;105105;1264;96563;-71
2023/04/30 17:50:15;;;;;;;9.40;4.40;;;;;;;12.43;44.41;98905.36;105240;1266;96634;-70
2023/04/30 17:52:42;;;;;;;6.00;3.10;;;;;;;12.35;44.83;98909.98;105180;1258;96578;-70
2023/04/30 17:55:10;;;;;;;5.40;3.00;;;;;;;12.26;45.03;98911.00;105083;1257;96608;-70
2023/04/30 17:57:37;;;;;;;6.30;2.80;;;;;;;12.17;45.12;98917.46;105173;1267;96660;-71
2023/04/30 18:00:05;;;;;;;7.00;3.10;;;;;;;12.07;44.44;98919.32;105101;1254;96616;-70
2023/04/30 18:02:33;;;;;;;4.40;2.60;;;;;;;11.99;44.61;98920.67;105068;1267;108792;-70
2023/04/30 18:05:00;;;;;;;5.70;3.20;;;;;;;11.89;44.80;98920.27;104690;1264;97824;-69
2023/04/30 18:07:27;;;;;;;8.30;2.80;;;;;;;11.80;44.55;98922.00;105113;1254;96574;-71
2023/04/30 18:09:55;;;;;;;4.50;2.60;;;;;;;11.71;44.85;98922.77;105208;1258;96593;-71
2023/04/30 18:12:23;;;;;;;7.20;3.90;;;;;;;11.62;45.05;98924.20;105054;1267;99464;-72
2023/04/30 18:14:52;;;;;;;12.30;6.10;;;;;;;11.55;45.02;98927.98;104967;1266;108620;-71
2023/04/30 18:17:19;;;;;;;11.30;6.20;;;;;;;11.46;45.03;98927.38;104918;1263;97808;-73
2023/04/30 18:19:47;;;;;;;10.20;5.40;;;;;;;11.38;45.16;98930.46;105056;1254;98171;-73
2023/04/30 18:22:15;;;;;;;13.30;7.50;;;;;;;11.30;45.47;98929.69;105076;1261;110868;-71
2023/04/30 18:24:42;;;;;;;21.50;9.70;;;;;;;11.22;45.71;98933.83;105250;1255;96590;-70
2023/04/30 18:27:09;;;;;;;18.10;9.20;;;;;;;11.14;45.75;98934.13;105199;1268;96641;-70
2023/04/30 18:29:36;;;;;;;16.20;8.90;;;;;;;11.04;45.96;98935.81;105015;1264;96570;-71
2023/04/30 18:32:04;;;;;;;13.50;8.00;;;;;;;10.96;45.98;98937.59;105069;1257;98173;-72
2023/04/30 18:34:32;;;;;;;12.50;7.60;;;;;;;10.89;46.22;98942.64;105387;1254;110849;-71
2023/04/30 18:36:59;;;;;;;8.90;6.30;;;;;;;10.83;46.14;98940.03;105222;1254;96567;-71
2023/04/30 18:39:26;;;;;;;10.60;6.20;;;;;;;10.77;46.32;98942.91;104972;1268;97779;-72
2023/04/30 18:41:53;;;;;;;11.00;5.30;;;;;;;10.71;46.66;98946.36;105174;1260;96680;-72
2023/04/30 18:44:29;;;;;;;7.80;4.90;;;;;;;10.65;46.46;98947.92;105164;1258;96571;-72
2023/04/30 18:46:56;;;;;;;6.50;4.00;;;;;;;10.59;46.58;98951.19;105142;1258;110284;-69
2023/04/30 18:49:23;;;;;;;8.00;4.80;;;;;;;10.53;46.85;98951.56;105241;1267;99055;-68
2023/04/30 18:51:50;;;;;;;8.40;4.80;;;;;;;10.46;47.10;98955.09;105226;1260;96578;-71
2023/04/30 18:54:17;;;;;;;10.40;3.80;;;;;;;10.40;47.21;98959.85;105215;1257;97851;-69
2023/04/30 18:56:44;;;;;;;7.90;3.80;;;;;;;10.34;47.32;98953.77;105259;1255;97005;-69
2023/04/30 18:59:13;;;;;;;5.40;3.40;;;;;;;10.27;47.56;98959.73;105151;1267;96567;-72
2023/04/30 19:01:40;;;;;;;8.80;4.30;;;;;;;10.21;47.60;98962.65;105043;1258;96567;-71
2023/04/30 19:04:12;;;;;;;7.10;3.90;;;;;;;10.15;47.86;98964.61;104987;1259;96540;-71
2023/04/30 19:06:39;;;;;;;8.30;3.90;;;;;;;10.08;47.81;98965.24;105018;1267;96597;-71
2023/04/30 19:09:08;;;;;;;5.00;3.20;;;;;;;10.03;48.10;98972.13;104996;1260;96580;-71
2023/04/30 19:11:35;;;;;;;6.60;3.40;;;;;;;9.97;48.33;98969.84;104938;1261;111556;-71
2023/04/30 19:14:02;;;;;;;16.20;3.50;;;;;;;9.92;48.39;98970.85;105197;1258;96571;-71
2023/04/30 19:16:29;;;;;;;9.80;2.90;;;;;;;9.88;48.51;98971.35;105099;1254;96555;-71
2023/04/30 19:18:57;;;;;;;4.40;2.80;;;;;;;9.85;48.42;98971.95;105109;1254;96561;-71
2023/04/30 19:21:27;;;;;;;7.30;2.90;;;;;;;9.80;48.69;98971.61;105046;1258;96559;-70
2023/04/30 19:23:56;;;;;;;4.20;2.70;;;;;;;9.74;48.90;98971.66;105144;1258;111114;-72
2023/04/30 19:26:24;;;;;;;7.20;3.00;;;;;;;9.66;48.89;98977.10;105130;1258;98349;-73
2023/04/30 19:28:53;;;;;;;6.40;3.60;;;;;;;9.60;48.94;98977.54;105003;1267;108637;-72
2023/04/30 19:31:23;;;;;;;9.00;4.90;;;;;;;9.57;48.96;98977.59;105188;1257;96567;-74
2023/04/30 19:33:51;;;;;;;10.20;5.60;;;;;;;9.55;49.27;98978.38;105160;1254;97541;-71
2023/04/30 19:36:18;;;;;;;13.30;7.70;;;;;;;9.51;49.56;98980.18;105026;1263;96593;-72
2023/04/30 19:38:45;;;;;;;13.80;8.00;;;;;;;9.46;49.92;98984.48;105072;1268;97844;-78
2023/04/30 19:41:13;;;;;;;14.90;8.20;;;;;;;9.41;49.99;98989.20;105091;1254;96526;-73
2023/04/30 19:43:39;;;;;;;11.70;6.50;;;;;;;9.38;50.33;98993.61;105163;1257;96574;-68
2023/04/30 19:46:08;;;;;;;15.40;7.00;;;;;;;9.35;50.50;98996.40;105336;1257;97916;-68
2023/04/30 19:48:35;;;;;;;11.20;6.00;;;;;;;9.29;50.70;98992.02;105197;1254;96618;-68
2023/04/30 19:51:04;;;;;;;11.70;6.10;;;;;;;9.21;50.94;98991.86;105114;1257;96577;-68
2023/04/30 19:53:31;;;;;;;12.10;6.10;;;;;;;9.13;50.98;98992.84;105238;1268;109169;-68
2023/04/30 19:55:58;;;;;;;16.80;6.80;;;;;;;9.06;51.21;98991.03;104918;1276;96744;-68
2023/04/30 19:58:25;;;;;;;18.70;7.80;;;;;;;9.01;51.35;98990.73;105269;1260;96706;-70
2023/04/30 20:00:52;;;;;;;15.50;8.50;;;;;;;8.96;51.61;98990.42;105094;1257;97470;-71
2023/04/30 20:03:21;;;;;;;14.40;7.20;;;;;;;8.90;51.93;98991.57;105242;1257;96573;-72
2023/04/30 20:05:48;;;;;;;15.30;7.40;;;;;;;8.84;51.92;98995.38;105300;1258;108627;-71
2023/04/30 20:08:15;;;;;;;14.20;7.70;;;;;;;8.76;52.20;98996.09;105222;1270;96565;-71
2023/04/30 20:10:43;;;;;;;16.70;8.00;;;;;;;8.67;52.60;98990.73;105263;1257;96571;-71
2023/04/30 20:13:10;;;;;;;11.90;6.50;;;;;;;8.61;52.97;98991.52;105164;1257;96591;-71
2023/04/30 20:15:37;;;;;;;15.50;7.50;;;;;;;8.56;53.09;98990.31;105209;1267;96638;-72
2023/04/30 20:18:07;;;;;;;12.10;6.40;;;;;;;8.53;53.70;98994.61;105175;1257;97380;-72
2023/04/30 20:20:40;;;;;;;13.00;6.30;;;;;;;8.40;54.33;98992.65;105013;1270;96641;-72
2023/04/30 20:23:15;;;;;;;9.30;5.30;;;;;;;8.29;55.29;98991.42;105009;1268;97946;-72
2023/04/30 20:25:43;;;;;;;16.50;6.20;;;;;;;8.20;54.98;98996.86;105270;1254;110868;-73
2023/04/30 20:28:13;;;;;;;15.10;6.30;;;;;;;8.14;55.15;98992.94;105139;1257;99279;-73
2023/04/30 20:30:41;;;;;;;13.60;6.80;;;;;;;8.10;55.34;98998.56;105269;1257;108571;-74
2023/04/30 20:33:10;;;;;;;18.30;8.30;;;;;;;8.04;55.20;98993.16;105245;1267;96565;-74
2023/04/30 20:35:44;;;;;;;25.60;11.20;;;;;;;7.98;55.65;98995.29;105060;1264;98067;-75
2023/04/30 20:38:12;;;;;;;21.30;11.50;;;;;;;7.91;55.72;98993.45;105202;1268;111620;-73
2023/04/30 20:40:39;;;;;;;19.60;10.90;;;;;;;7.86;55.33;98990.81;105116;1266;99660;-74
2023/04/30 20:43:09;;;;;;;21.60;11.30;;;;;;;7.81;55.48;98992.66;105021;1257;96536;-75
2023/04/30 20:45:38;;;;;;;23.30;10.50;;;;;;;7.75;55.76;98992.92;105237;1258;97553;-73
2023/04/30 20:48:06;;;;;;;21.00;9.90;;;;;;;7.72;56.04;98993.29;104994;1254;96641;-70
2023/04/30 20:50:33;;;;;;;18.80;8.10;;;;;;;7.73;55.84;98994.27;105052;1268;110974;-73
2023/04/30 20:53:02;;;;;;;17.30;8.90;;;;;;;7.72;55.49;98996.14;105221;1260;97778;-75
2023/04/30 20:55:38;;;;;;;15.90;7.90;;;;;;;7.69;55.85;98998.45;105151;1257;107570;-75
2023/04/30 20:58:16;;;;;;;19.80;9.80;;;;;;;7.66;56.54;99002.40;105088;1268;96583;-74
2023/04/30 21:00:49;;;;;;;19.10;8.80;;;;;;;7.62;57.23;99000.30;104970;1267;97354;-74
2023/04/30 21:03:16;;;;;;;17.90;8.30;;;;;;;7.57;57.25;99002.69;105040;1260;110890;-78
2023/04/30 21:05:44;;;;;;;13.50;7.50;;;;;;;7.50;58.01;99001.92;105200;1257;100419;-77
2023/04/30 21:08:12;;;;;;;13.40;7.60;;;;;;;7.43;58.58;99004.59;105302;1257;108756;-74
2023/04/30 21:10:40;;;;;;;17.70;8.40;;;;;;;7.34;58.82;99007.55;105024;1262;97791;-75
2023/04/30 21:13:08;;;;;;;16.30;8.20;;;;;;;7.26;58.87;99007.05;105088;1258;96640;-75
2023/04/30 21:15:35;;;;;;;17.90;8.60;;;;;;;7.18;59.61;99007.44;105157;1254;110941;-75
2023/04/30 21:18:02;;;;;;;21.70;9.50;;;;;;;7.11;59.71;99009.02;105119;1260;96655;-77
2023/04/30 21:20:30;;;;;;;19.10;9.60;;;;;;;7.04;60.15;99012.09;105094;1257;96584;-75
2023/04/30 21:22:58;;;;;;;15.40;9.10;;;;;;;6.97;60.15;99014.09;105183;1257;96565;-78
2023/04/30 21:25:27;;;;;;;21.00;9.20;;;;;;;6.93;60.29;99013.52;104870;1264;97530;-76
2023/04/30 21:27:54;;;;;;;17.90;10.00;;;;;;;6.91;60.20;99020.08;105172;1254;97109;-75
2023/04/30 21:30:21;;;;;;;20.80;9.40;;;;;;;6.88;60.25;99022.27;105100;1258;96609;-75
2023/04/30 21:32:56;;;;;;;18.10;9.60;;;;;;;6.85;60.63;99026.08;105042;1258;108757;-74
2023/04/30 21:35:26;;;;;;;18.10;9.10;;;;;;;6.81;60.40;99028.56;104981;1254;96494;-73
2023/04/30 21:37:53;;;;;;;19.00;9.30;;;;;;;6.74;61.22;99031.10;105057;1259;96956;-74
2023/04/30 21:40:21;;;;;;;17.40;9.60;;;;;;;6.70;61.37;99035.80;105148;1267;111024;-73
2023/04/30 21:42:48;;;;;;;18.80;9.40;;;;;;;6.64;61.09;99034.63;105081;1257;96689;-73
2023/04/30 21:45:16;;;;;;;23.00;10.20;;;;;;;6.58;61.76;99037.75;105093;1257;108670;-72
2023/04/30 21:47:46;;;;;;;20.20;9.90;;;;;;;6.51;61.77;99044.41;105045;1260;97320;-73
2023/04/30 21:50:13;;;;;;;20.20;10.00;;;;;;;6.43;62.15;99042.69;105140;1257;98021;-74
2023/04/30 21:52:40;;;;;;;23.70;9.90;;;;;;;6.33;62.36;99043.38;105104;1257;96613;-72
2023/04/30 21:55:08;;;;;;;17.10;9.60;;;;;;;6.30;62.52;99050.02;105154;1257;96603;-72
2023/04/30 21:57:35;;;;;;;20.30;11.10;;;;;;;6.27;62.51;99053.19;105165;1258;108438;-72
2023/04/30 22:00:05;;;;;;;20.00;10.40;;;;;;;6.23;62.33;99054.23;105184;1253;96630;-72
2023/04/30 22:02:33;;;;;;;23.30;11.20;;;;;;;6.20;62.52;99057.45;105236;1254;96555;-72
2023/04/30 22:05:06;;;;;;;21.40;11.00;;;;;;;6.16;62.67;99057.29;104803;1260;110141;-73
2023/04/30 22:07:33;;;;;;;25.80;12.00;;;;;;;6.11;63.08;99059.14;105173;1267;99258;-73
2023/04/30 22:10:04;;;;;;;23.10;10.80;;;;;;;6.07;63.22;99058.33;105101;1258;96555;-73
2023/04/30 22:12:31;;;;;;;;;;;;;;;6.02;63.25;99058.48;105093;1257;96593;-73
2023/04/30 22:14:59;;;;;;;20.10;10.10;;;;;;;5.97;63.06;99061.36;105109;1257;96632;-73
2023/04/30 22:17:29;;;;;;;21.60;10.50;;;;;;;5.93;63.30;99057.71;105078;1257;110326;-74
2023/04/30 22:19:57;;;;;;;19.30;10.40;;;;;;;5.88;63.31;99059.73;105001;1254;99437;-75
2023/04/30 22:22:25;;;;;;;22.10;9.90;;;;;;;5.85;63.61;99061.20;105126;1257;108517;-74
2023/04/30 22:24:52;;;;;;;18.60;9.60;;;;;;;5.81;64.26;99066.38;105068;1257;96609;-75
2023/04/30 22:27:20;;;;;;;19.40;10.10;;;;;;;5.78;64.17;99069.58;105246;1258;96687;-72
2023/04/30 22:29:49;;;;;;;17.00;9.20;;;;;;;5.76;64.16;99070.60;105189;1259;110987;-71
2023/04/30 22:32:18;;;;;;;20.70;8.60;;;;;;;5.73;64.05;99074.70;104980;1264;97986;-69
2023/04/30 22:34:49;;;;;;;18.60;8.30;;;;;;;5.72;64.01;99077.78;105291;1260;108610;-71
2023/04/30 22:37:25;;;;;;;15.40;8.50;;;;;;;5.71;64.00;99080.18;105192;1260;97205;-72
2023/04/30 22:40:05;;;;;;;15.20;8.10;;;;;;;5.70;64.30;99079.64;105055;1276;96883;-72
2023/04/30 22:42:33;;;;;;;16.00;8.20;;;;;;;5.71;64.16;99079.74;105171;1270;110946;-70
2023/04/30 22:45:00;;;;;;;15.60;8.40;;;;;;;5.74;64.15;99077.41;105180;1254;98001;-70
2023/04/30 22:47:27;;;;;;;16.80;8.20;;;;;;;5.79;64.05;99073.92;105107;1266;96663;-73
2023/04/30 22:49:55;;;;;;;16.50;7.70;;;;;;;5.80;64.27;99075.51;105101;1260;96561;-72
2023/04/30 22:52:24;;;;;;;13.10;7.50;;;;;;;5.74;64.17;99076.42;105069;1255;98339;-72
2023/04/30 22:54:51;;;;;;;14.40;8.00;;;;;;;5.69;64.34;99073.87;105220;1260;111617;-72
2023/04/30 22:57:21;;;;;;;16.60;8.40;;;;;;;5.68;64.54;99076.26;105238;1257;96539;-73
2023/04/30 22:59:48;;;;;;;14.90;8.20;;;;;;;5.64;64.72;99073.00;105122;1257;107765;-73
2023/04/30 23:02:16;;;;;;;17.90;9.00;;;;;;;5.61;64.71;99076.58;105011;1257;96644;-67
2023/04/30 23:04:43;;;;;;;14.00;8.00;;;;;;;5.58;64.98;99076.20;105095;1260;98413;-70
2023/04/30 23:07:11;;;;;;;17.30;8.30;;;;;;;5.55;65.05;99077.83;105092;1257;97760;-69
2023/04/30 23:09:38;;;;;;;16.30;8.20;;;;;;;5.47;65.34;99076.23;104939;1267;99243;-69
2023/04/30 23:12:11;;;;;;;15.10;8.50;;;;;;;5.40;65.61;99083.40;105171;1255;96567;-72
2023/04/30 23:14:44;;;;;;;15.90;8.80;;;;;;;5.33;65.68;99081.20;105083;1259;96571;-71
2023/04/30 23:17:23;;;;;;;17.70;8.40;;;;;;;5.28;65.57;99082.55;105045;1257;97799;-72
2023/04/30 23:19:50;;;;;;;13.80;7.50;;;;;;;5.25;65.58;99082.88;105012;1253;96561;-72
2023/04/30 23:22:17;;;;;;;15.00;8.20;;;;;;;5.24;65.42;99081.23;105030;1254;96570;-73
2023/04/30 23:24:44;;;;;;;18.50;8.80;;;;;;;5.19;65.56;99081.45;105213;1267;96533;-73
2023/04/30 23:27:11;;;;;;;18.50;8.60;;;;;;;5.13;65.40;99080.13;105053;1257;96568;-73
2023/04/30 23:29:38;;;;;;;14.30;8.30;;;;;;;5.07;65.88;99082.13;104995;1257;97798;-73
2023/04/30 23:32:06;;;;;;;16.40;8.40;;;;;;;4.99;66.21;99083.98;105109;1257;97640;-72
2023/04/30 23:34:33;;;;;;;19.60;8.90;;;;;;;4.94;66.25;99088.86;104996;1254;97049;-71
2023/04/30 23:37:01;;;;;;;16.60;8.40;;;;;;;4.91;66.36;99086.30;105063;1257;96535;-71
2023/04/30 23:39:28;;;;;;;17.40;8.00;;;;;;;4.86;66.64;99090.93;104965;1257;96492;-72
2023/04/30 23:41:56;;;;;;;18.60;8.80;;;;;;;4.80;66.81;99086.14;105186;1256;96958;-73
2023/04/30 23:44:23;;;;;;;21.00;8.70;;;;;;;4.73;67.28;99083.66;105130;1257;96558;-73
2023/04/30 23:46:50;;;;;;;15.80;8.40;;;;;;;4.68;67.33;99077.45;105148;1264;96555;-72
2023/04/30 23:49:17;;;;;;;15.40;8.50;;;;;;;4.68;67.17;99083.37;105180;1267;97137;-71
2023/04/30 23:51:44;;;;;;;16.90;8.70;;;;;;;4.69;67.44;99079.63;105181;1258;96580;-70
2023/04/30 23:54:11;;;;;;;16.70;9.30;;;;;;;4.70;67.32;99078.55;105154;1258;97089;-72
2023/04/30 23:56:38;;;;;;;18.60;9.80;;;;;;;4.73;67.40;99079.21;105033;1268;97467;-70
2023/04/30 23:59:06;;;;;;;16.20;8.90;;;;;;;4.76;67.58;99077.81;105121;1260;97000;-72
